Time;durP1;ratioP1;P1;durP2;ratioP2;P2;SDS_P1;SDS_P2;PMS_P1;PMS_P2;Temp;Humidity;BMP_temperature;BMP_pressure;BME280_temperature;BME280_humidity;BME280_pressure;Samples;Min_cycle;Max_cycle;Signal;HPM_P1;HPM_P2
2023/01/02 00:02:00;;;;;;;31.00;20.50;;;;;;;10.59;61.93;100885.88;108869;1276;24281;-81
2023/01/02 00:04:30;;;;;;;30.30;21.70;;;;;;;10.59;62.14;100877.53;108603;1277;22072;-79
2023/01/02 00:07:00;;;;;;;27.10;18.70;;;;;;;10.58;62.23;100864.31;108726;1275;23741;-82
2023/01/02 00:09:34;;;;;;;;;;;;;;;10.57;62.28;100861.22;108474;1278;22493;-79
2023/01/02 00:12:04;;;;;;;25.60;18.40;;;;;;;10.46;62.42;100863.28;108600;1278;22063;-79
2023/01/02 00:14:44;;;;;;;26.40;18.80;;;;;;;10.41;62.53;100860.81;108261;1286;21934;-78
2023/01/02 00:17:16;;;;;;;26.20;19.20;;;;;;;10.40;62.55;100858.41;107287;1292;23097;-79
2023/01/02 00:19:45;;;;;;;22.90;18.70;;;;;;;10.37;62.62;100859.55;107439;1291;21953;-78
2023/01/02 00:22:17;;;;;;;27.70;19.90;;;;;;;10.31;62.72;100856.40;107461;1291;21952;-80
2023/01/02 00:24:46;;;;;;;29.70;21.50;;;;;;;10.22;62.85;100854.89;107408;1289;23108;-81
2023/01/02 00:27:16;;;;;;;30.00;21.50;;;;;;;10.16;63.14;100850.36;107347;1286;21935;-80
2023/01/02 00:29:46;;;;;;;28.10;20.90;;;;;;;10.09;63.26;100845.14;108224;1284;21939;-80
2023/01/02 00:32:16;;;;;;;27.50;20.60;;;;;;;10.06;63.44;100847.50;107988;1280;21930;-79
2023/01/02 00:34:49;;;;;;;29.40;22.20;;;;;;;10.05;63.53;100856.27;108496;1277;21951;-79
2023/01/02 00:37:20;;;;;;;29.10;21.50;;;;;;;10.03;63.61;100853.52;108563;1279;23082;-80
2023/01/02 00:39:50;;;;;;;30.40;21.50;;;;;;;10.03;63.83;100857.68;108750;1279;22376;-79
2023/01/02 00:42:20;;;;;;;31.00;22.20;;;;;;;10.03;63.81;100852.29;108659;1280;21988;-80
2023/01/02 00:44:50;;;;;;;25.60;20.30;;;;;;;10.02;63.98;100853.88;108295;1283;22891;-78
2023/01/02 00:47:19;;;;;;;27.10;21.10;;;;;;;10.00;64.13;100849.95;108284;1283;21943;-80
2023/01/02 00:49:49;;;;;;;28.10;20.60;;;;;;;9.97;64.17;100847.06;108351;1284;21943;-79
2023/01/02 00:52:19;;;;;;;24.80;20.10;;;;;;;9.96;64.14;100842.23;108125;1282;21943;-81
2023/01/02 00:54:49;;;;;;;26.40;21.50;;;;;;;9.95;64.30;100843.11;108182;1280;24343;-81
2023/01/02 00:57:19;;;;;;;24.10;20.50;;;;;;;9.94;64.40;100836.52;108514;1283;21936;-79
2023/01/02 00:59:52;;;;;;;27.10;20.40;;;;;;;9.90;64.49;100839.08;108079;1284;23091;-78
2023/01/02 01:02:22;;;;;;;25.50;20.00;;;;;;;9.87;64.47;100839.67;108194;1283;22019;-78
2023/01/02 01:04:52;;;;;;;25.90;19.70;;;;;;;9.86;64.59;100837.45;108156;1280;21920;-77
2023/01/02 01:07:22;;;;;;;28.20;20.00;;;;;;;9.84;64.65;100841.33;108463;1280;23660;-79
2023/01/02 01:09:52;;;;;;;27.60;21.20;;;;;;;9.84;64.81;100839.94;108697;1280;21937;-78
2023/01/02 01:12:21;;;;;;;25.00;18.90;;;;;;;9.86;64.84;100841.96;108347;1280;23595;-78
2023/01/02 01:14:51;;;;;;;25.60;21.40;;;;;;;9.87;64.81;100848.20;108477;1277;23049;-79
2023/01/02 01:17:21;;;;;;;28.80;20.60;;;;;;;9.89;64.80;100851.27;108809;1274;21921;-79
2023/01/02 01:19:53;;;;;;;25.50;19.60;;;;;;;9.88;64.72;100849.22;108807;1275;22738;-78
2023/01/02 01:22:23;;;;;;;;;;;;;;;9.87;64.84;100851.87;108576;1275;21899;-78
2023/01/02 01:24:52;;;;;;;25.90;19.90;;;;;;;9.79;65.07;100855.89;108694;1276;21944;-78
2023/01/02 01:27:22;;;;;;;30.40;22.60;;;;;;;9.80;65.09;100850.46;108599;1274;22692;-79
2023/01/02 01:29:52;;;;;;;26.10;20.40;;;;;;;9.79;64.99;100845.63;108594;1277;21922;-79
2023/01/02 01:32:22;;;;;;;25.80;20.30;;;;;;;9.80;65.02;100840.75;108859;1274;21914;-79
2023/01/02 01:34:52;;;;;;;26.60;19.10;;;;;;;9.80;65.01;100838.64;108800;1274;21983;-80
2023/01/02 01:37:24;;;;;;;27.70;19.90;;;;;;;9.81;65.01;100840.20;108745;1274;21979;-78
2023/01/02 01:39:54;;;;;;;25.20;19.30;;;;;;;9.85;65.17;100845.67;108636;1276;21945;-77
2023/01/02 01:42:34;;;;;;;24.20;19.10;;;;;;;9.86;65.04;100844.77;108556;1277;23799;-79
2023/01/02 01:45:13;;;;;;;27.90;20.30;;;;;;;9.87;65.20;100847.85;108539;1278;23577;-77
2023/01/02 01:47:54;;;;;;;28.10;20.00;;;;;;;9.87;64.96;100850.11;108334;1282;22003;-79
2023/01/02 01:50:32;;;;;;;29.40;19.50;;;;;;;9.89;65.04;100852.14;108464;1282;22074;-79
2023/01/02 01:53:15;;;;;;;24.20;19.20;;;;;;;9.92;65.15;100849.29;108234;1282;23046;-78
2023/01/02 01:56:01;;;;;;;22.60;18.40;;;;;;;9.95;64.99;100843.45;108356;1280;21959;-78
2023/01/02 01:58:45;;;;;;;24.10;18.40;;;;;;;9.95;64.93;100847.10;108199;1282;22408;-79
2023/01/02 02:01:16;;;;;;;25.20;18.90;;;;;;;9.95;64.84;100844.33;108197;1281;21963;-79
2023/01/02 02:03:49;;;;;;;27.70;18.80;;;;;;;9.94;64.80;100837.23;108224;1283;21957;-78
2023/01/02 02:06:19;;;;;;;26.90;19.10;;;;;;;9.91;64.75;100832.61;108492;1277;22692;-79
2023/01/02 02:09:10;;;;;;;21.10;16.80;;;;;;;9.89;64.77;100826.95;108603;1276;22726;-78
2023/01/02 02:11:42;;;;;;;29.60;18.40;;;;;;;9.83;64.78;100821.36;108818;1274;22580;-78
2023/01/02 02:14:11;;;;;;;23.40;18.10;;;;;;;9.78;64.76;100824.10;108698;1277;21927;-78
2023/01/02 02:17:21;;;;;;;25.70;19.70;;;;;;;9.73;64.72;100820.77;108688;1276;22585;-79
2023/01/02 02:20:09;;;;;;;24.90;18.70;;;;;;;9.66;64.86;100814.87;108735;1277;21924;-78
2023/01/02 02:23:22;;;;;;;24.30;18.40;;;;;;;9.64;65.02;100806.75;108794;1274;22528;-78
2023/01/02 02:26:32;;;;;;;23.00;17.70;;;;;;;9.61;65.13;100802.66;108670;1277;21916;-80
2023/01/02 02:29:26;;;;;;;25.00;17.90;;;;;;;9.59;65.15;100799.07;108772;1277;22676;-79
2023/01/02 02:32:26;;;;;;;24.10;17.70;;;;;;;9.57;65.30;100798.95;108589;1276;21923;-78
2023/01/02 02:35:42;;;;;;;21.10;16.80;;;;;;;9.51;65.44;100802.90;108819;1274;21991;-77
2023/01/02 02:38:44;;;;;;;21.00;17.60;;;;;;;9.48;65.49;100803.88;108672;1276;21929;-79
2023/01/02 02:41:46;;;;;;;22.40;17.80;;;;;;;9.46;65.46;100808.12;108713;1278;22140;-79
2023/01/02 02:44:42;;;;;;;22.00;18.20;;;;;;;9.44;65.59;100807.64;107816;1277;1245622;-79
2023/01/02 02:47:33;;;;;;;22.40;18.50;;;;;;;9.41;65.66;100810.48;108608;1278;22695;-79
2023/01/02 02:50:15;;;;;;;21.40;16.30;;;;;;;9.42;65.76;100813.23;108798;1273;23046;-80
2023/01/02 02:53:27;;;;;;;21.80;17.30;;;;;;;9.44;65.84;100814.23;108583;1274;23040;-79
2023/01/02 02:56:01;;;;;;;18.90;16.60;;;;;;;9.45;65.74;100816.46;108683;1275;21921;-79
2023/01/02 02:58:33;;;;;;;22.30;15.90;;;;;;;9.48;65.88;100821.08;108875;1273;23074;-79
2023/01/02 03:01:13;;;;;;;21.90;16.10;;;;;;;9.52;66.02;100821.84;108485;1277;24363;-78
2023/01/02 03:03:42;;;;;;;18.90;15.50;;;;;;;9.54;65.91;100817.94;108756;1276;23785;-79
2023/01/02 03:06:28;;;;;;;18.50;15.70;;;;;;;9.57;65.90;100815.98;108690;1275;22287;-79
2023/01/02 03:09:40;;;;;;;18.20;15.40;;;;;;;9.57;65.74;100810.06;108654;1274;23667;-79
2023/01/02 03:12:30;;;;;;;20.20;16.00;;;;;;;9.55;65.76;100803.00;108357;1285;23593;-78
2023/01/02 03:15:23;;;;;;;21.90;17.10;;;;;;;9.52;65.71;100796.29;108342;1281;21991;-79
2023/01/02 03:18:18;;;;;;;21.80;16.80;;;;;;;9.50;65.89;100792.68;108409;1278;22409;-78
2023/01/02 03:21:16;;;;;;;22.30;15.60;;;;;;;9.49;65.88;100790.84;108243;1283;21985;-78
2023/01/02 03:23:48;;;;;;;19.30;15.40;;;;;;;9.43;65.81;100788.90;108291;1281;21950;-79
2023/01/02 03:26:26;;;;;;;20.00;15.00;;;;;;;9.40;65.80;100787.41;108249;1283;22698;-78
2023/01/02 03:29:09;;;;;;;19.90;16.00;;;;;;;9.35;66.03;100782.67;108329;1284;22072;-77
2023/01/02 03:31:41;;;;;;;22.90;16.90;;;;;;;9.32;66.09;100778.56;108446;1283;22741;-78
2023/01/02 03:34:20;;;;;;;20.30;16.80;;;;;;;9.31;66.16;100778.77;108409;1283;22834;-77
2023/01/02 03:36:59;;;;;;;21.60;15.40;;;;;;;9.30;66.24;100778.62;108201;1285;22454;-79
2023/01/02 03:39:34;;;;;;;19.50;15.90;;;;;;;9.30;66.32;100776.18;108171;1285;23656;-78
2023/01/02 03:42:15;;;;;;;16.50;14.00;;;;;;;9.29;66.32;100769.45;108193;1283;21929;-79
2023/01/02 03:44:58;;;;;;;19.10;15.80;;;;;;;9.25;66.49;100762.08;108360;1284;21931;-78
2023/01/02 03:47:37;;;;;;;21.00;16.50;;;;;;;9.23;66.55;100758.50;108402;1285;23434;-77
2023/01/02 03:50:19;;;;;;;20.70;15.00;;;;;;;9.21;66.57;100754.36;108637;1277;21968;-78
2023/01/02 03:52:54;;;;;;;19.60;15.80;;;;;;;9.19;66.63;100747.98;108642;1276;22798;-78
2023/01/02 03:55:26;;;;;;;19.90;16.50;;;;;;;9.18;66.72;100737.95;108796;1277;21957;-78
2023/01/02 03:58:21;;;;;;;20.70;16.40;;;;;;;9.16;66.75;100724.30;108574;1277;24288;-78
2023/01/02 04:01:03;;;;;;;23.00;17.80;;;;;;;9.13;66.88;100721.24;108439;1282;23599;-78
2023/01/02 04:03:59;;;;;;;30.50;19.40;;;;;;;9.12;66.99;100727.34;108429;1282;23667;-78
2023/01/02 04:06:36;;;;;;;35.80;32.20;;;;;;;9.13;67.06;100728.55;108485;1283;22088;-77
2023/01/02 04:09:16;;;;;;;24.20;20.40;;;;;;;9.15;67.18;100722.58;108592;1280;21928;-78
2023/01/02 04:11:51;;;;;;;22.00;17.80;;;;;;;9.17;67.19;100719.76;108640;1280;23053;-78
2023/01/02 04:14:32;;;;;;;23.10;17.30;;;;;;;9.18;67.08;100715.02;108494;1282;23613;-78
2023/01/02 04:17:07;;;;;;;19.90;17.80;;;;;;;9.18;67.04;100712.43;108298;1283;21954;-77
2023/01/02 04:19:54;;;;;;;21.40;16.70;;;;;;;9.18;67.19;100708.44;108361;1283;22299;-78
2023/01/02 04:22:35;;;;;;;17.90;15.90;;;;;;;9.18;67.25;100699.05;108419;1280;23051;-78
2023/01/02 04:25:15;;;;;;;21.70;17.30;;;;;;;9.18;67.26;100701.81;108400;1278;23641;-77
2023/01/02 04:27:57;;;;;;;20.30;18.30;;;;;;;9.18;67.32;100691.41;108700;1277;22175;-78
2023/01/02 04:30:34;;;;;;;21.70;18.20;;;;;;;9.18;67.23;100689.86;108334;1283;21944;-79
2023/01/02 04:33:09;;;;;;;20.80;18.60;;;;;;;9.18;67.43;100691.74;108350;1282;23116;-78
2023/01/02 04:35:38;;;;;;;19.80;17.70;;;;;;;9.21;67.48;100692.55;108283;1283;21931;-78
2023/01/02 04:38:11;;;;;;;19.20;17.00;;;;;;;9.22;67.39;100695.29;108312;1279;21948;-78
2023/01/02 04:40:41;;;;;;;16.30;14.60;;;;;;;9.25;67.46;100697.48;108227;1281;22728;-78
2023/01/02 04:43:20;;;;;;;15.90;14.30;;;;;;;9.26;67.40;100700.41;108184;1283;23782;-78
2023/01/02 04:45:49;;;;;;;19.50;13.70;;;;;;;9.28;67.38;100702.63;108162;1281;24239;-79
2023/01/02 04:48:19;;;;;;;15.60;12.80;;;;;;;9.29;67.40;100706.77;108500;1275;23072;-79
2023/01/02 04:50:48;;;;;;;28.50;23.70;;;;;;;9.32;67.39;100708.73;108581;1275;23065;-78
2023/01/02 04:53:18;;;;;;;17.20;13.70;;;;;;;9.35;67.30;100698.41;108636;1274;23071;-78
2023/01/02 04:55:48;;;;;;;15.20;13.30;;;;;;;9.33;67.37;100693.94;108612;1274;21915;-79
2023/01/02 04:58:17;;;;;;;15.30;13.20;;;;;;;9.35;67.39;100695.82;108584;1278;21931;-78
2023/01/02 05:00:47;;;;;;;13.70;12.00;;;;;;;9.36;67.51;100692.84;108586;1276;21880;-77
2023/01/02 05:03:16;;;;;;;14.60;12.10;;;;;;;9.38;67.42;100679.92;108570;1278;22089;-78
2023/01/02 05:05:46;;;;;;;15.80;13.00;;;;;;;9.36;67.40;100670.59;108698;1274;23788;-77
2023/01/02 05:08:15;;;;;;;14.60;12.10;;;;;;;9.37;67.53;100675.80;108667;1275;21951;-78
2023/01/02 05:10:44;;;;;;;14.70;11.60;;;;;;;9.38;67.46;100679.60;108561;1278;22427;-78
2023/01/02 05:13:14;;;;;;;13.00;11.10;;;;;;;9.39;67.38;100676.96;108781;1273;23048;-78
2023/01/02 05:15:43;;;;;;;17.00;13.20;;;;;;;9.40;67.36;100673.47;108619;1277;21930;-78
2023/01/02 05:18:12;;;;;;;17.70;11.90;;;;;;;9.39;67.36;100667.75;108591;1277;21927;-78
2023/01/02 05:20:42;;;;;;;14.70;11.80;;;;;;;9.39;67.39;100670.89;108674;1275;23583;-78
2023/01/02 05:23:57;;;;;;;14.70;11.30;;;;;;;9.38;67.48;100668.46;108634;1275;22604;-78
2023/01/02 05:26:00;;;;;;;14.90;12.10;;;;;;;9.37;67.51;100668.83;108655;1275;21950;-78
2023/01/02 05:28:29;;;;;;;17.50;11.00;;;;;;;9.39;67.60;100670.72;108770;1274;23003;-79
2023/01/02 05:31:06;;;;;;;16.20;12.50;;;;;;;9.40;67.61;100670.84;108637;1274;21957;-79
2023/01/02 05:33:36;;;;;;;13.80;12.00;;;;;;;9.43;67.62;100667.29;108736;1272;22020;-79
2023/01/02 05:36:09;;;;;;;13.30;11.30;;;;;;;9.48;67.73;100662.11;108613;1276;23065;-79
2023/01/02 05:38:45;;;;;;;11.30;10.20;;;;;;;9.53;67.72;100654.16;108802;1274;23603;-78
2023/01/02 05:41:16;;;;;;;11.30;10.10;;;;;;;9.55;67.60;100648.51;108539;1275;21921;-79
2023/01/02 05:43:45;;;;;;;14.40;11.20;;;;;;;9.55;67.45;100646.45;108290;1284;24300;-79
2023/01/02 05:46:18;;;;;;;13.60;11.10;;;;;;;9.55;67.49;100641.25;108193;1279;21960;-80
2023/01/02 05:48:51;;;;;;;12.40;11.10;;;;;;;9.55;67.39;100641.39;108329;1280;23813;-78
2023/01/02 05:51:21;;;;;;;13.30;11.10;;;;;;;9.56;67.47;100641.39;108263;1280;21927;-80
2023/01/02 05:53:56;;;;;;;13.30;11.10;;;;;;;9.56;67.53;100634.95;108408;1280;23220;-78
2023/01/02 05:56:27;;;;;;;17.20;11.90;;;;;;;9.56;67.45;100632.86;108366;1280;21991;-80
2023/01/02 05:58:57;;;;;;;19.30;12.30;;;;;;;9.55;67.50;100635.16;108445;1280;22503;-79
2023/01/02 06:01:28;;;;;;;18.60;13.50;;;;;;;9.55;67.60;100632.20;108387;1278;21960;-80
2023/01/02 06:03:59;;;;;;;15.80;12.00;;;;;;;9.57;67.62;100633.89;108537;1274;21981;-79
2023/01/02 06:06:33;;;;;;;14.00;12.50;;;;;;;9.57;67.59;100635.62;108623;1276;21965;-78
2023/01/02 06:09:05;;;;;;;17.10;12.90;;;;;;;9.56;67.55;100630.23;108529;1276;22411;-78
2023/01/02 06:11:35;;;;;;;18.20;14.10;;;;;;;9.58;67.64;100626.56;108622;1274;23612;-80
2023/01/02 06:14:05;;;;;;;19.60;14.60;;;;;;;9.60;67.56;100620.59;108629;1276;22760;-79
2023/01/02 06:16:41;;;;;;;22.40;14.50;;;;;;;9.61;67.65;100621.76;108637;1276;22319;-79
2023/01/02 06:19:12;;;;;;;20.30;15.10;;;;;;;9.61;67.59;100618.14;108563;1274;21912;-81
2023/01/02 06:21:42;;;;;;;18.50;14.30;;;;;;;9.60;67.55;100615.91;108797;1277;23075;-79
2023/01/02 06:24:11;;;;;;;17.80;14.30;;;;;;;9.60;67.59;100616.27;108789;1265;21991;-79
2023/01/02 06:26:45;;;;;;;20.90;15.00;;;;;;;9.61;67.65;100617.61;108591;1274;22719;-81
2023/01/02 06:29:16;;;;;;;19.20;13.70;;;;;;;9.64;67.72;100618.04;108805;1274;21928;-79
2023/01/02 06:31:59;;;;;;;19.10;13.40;;;;;;;9.64;67.63;100616.31;108656;1276;23689;-79
2023/01/02 06:34:31;;;;;;;15.40;11.80;;;;;;;9.65;67.55;100614.19;108533;1272;22795;-79
2023/01/02 06:37:17;;;;;;;19.00;11.40;;;;;;;9.65;67.61;100619.77;108872;1274;21908;-80
2023/01/02 06:39:52;;;;;;;12.50;10.90;;;;;;;9.65;67.69;100623.38;108538;1271;22011;-80
2023/01/02 06:42:41;;;;;;;15.10;11.40;;;;;;;9.63;67.72;100617.89;108627;1278;23673;-80
2023/01/02 06:45:23;;;;;;;15.00;11.60;;;;;;;9.64;67.73;100621.17;108737;1269;21929;-79
2023/01/02 06:48:24;;;;;;;12.80;11.20;;;;;;;9.64;67.71;100624.47;108558;1278;21932;-78
2023/01/02 06:51:19;;;;;;;17.90;12.10;;;;;;;9.63;67.68;100621.38;108557;1278;21926;-78
2023/01/02 06:54:13;;;;;;;18.60;13.00;;;;;;;9.61;67.74;100620.20;108494;1278;21941;-80
2023/01/02 06:57:01;;;;;;;16.00;13.00;;;;;;;9.62;67.91;100621.75;108680;1276;23649;-80
2023/01/02 07:00:01;;;;;;;17.30;12.80;;;;;;;9.64;68.06;100624.28;108864;1276;22431;-79
2023/01/02 07:02:44;;;;;;;24.60;15.50;;;;;;;9.67;68.04;100624.02;108792;1274;22406;-79
2023/01/02 07:05:19;;;;;;;18.50;14.20;;;;;;;9.72;68.05;100626.66;108618;1272;22326;-80
2023/01/02 07:07:55;;;;;;;19.30;15.00;;;;;;;9.77;68.00;100623.55;108839;1268;21949;-81
2023/01/02 07:10:29;;;;;;;17.30;15.40;;;;;;;9.81;68.03;100618.92;108901;1275;21914;-80
2023/01/02 07:13:10;;;;;;;21.40;14.70;;;;;;;9.86;67.94;100619.13;109129;1272;24641;-82
2023/01/02 07:16:07;;;;;;;18.30;14.70;;;;;;;9.89;67.93;100613.64;109009;1274;21918;-81
2023/01/02 07:19:24;;;;;;;20.90;15.30;;;;;;;9.89;67.81;100612.06;108981;1274;21997;-81
2023/01/02 07:21:57;;;;;;;20.30;15.10;;;;;;;9.93;67.86;100615.42;108941;1272;21961;-80
2023/01/02 07:24:27;;;;;;;20.20;17.10;;;;;;;9.98;67.78;100615.45;108994;1269;23060;-80
2023/01/02 07:26:57;;;;;;;21.80;17.30;;;;;;;10.01;67.64;100614.83;108951;1273;22833;-83
2023/01/02 07:29:26;;;;;;;24.90;18.60;;;;;;;10.04;67.65;100615.60;108862;1272;23753;-83
2023/01/02 07:31:56;;;;;;;33.10;25.90;;;;;;;10.05;67.58;100609.83;109055;1272;21920;-81
2023/01/02 07:34:26;;;;;;;37.10;29.20;;;;;;;10.08;67.52;100610.80;108921;1272;21971;-80
2023/01/02 07:36:57;;;;;;;30.20;22.90;;;;;;;10.09;67.37;100613.17;108945;1276;23831;-81
2023/01/02 07:39:27;;;;;;;27.60;22.20;;;;;;;10.11;67.41;100616.11;108976;1274;21932;-81
2023/01/02 07:41:57;;;;;;;24.90;19.70;;;;;;;10.12;67.41;100617.98;109153;1274;21943;-82
2023/01/02 07:44:27;;;;;;;22.50;18.30;;;;;;;10.14;67.42;100624.86;108930;1276;22383;-80
2023/01/02 07:46:59;;;;;;;17.50;15.50;;;;;;;10.16;67.42;100623.05;108899;1274;21927;-83
2023/01/02 07:49:49;;;;;;;18.10;14.60;;;;;;;10.18;67.27;100617.42;108876;1274;23084;-81
2023/01/02 07:52:19;;;;;;;26.90;18.40;;;;;;;10.21;67.41;100616.29;108798;1274;22877;-79
2023/01/02 07:54:49;;;;;;;45.50;28.80;;;;;;;10.25;67.34;100615.30;108962;1274;21940;-79
2023/01/02 07:57:18;;;;;;;25.90;21.70;;;;;;;10.26;67.19;100619.95;108600;1277;21972;-81
2023/01/02 07:59:49;;;;;;;27.60;22.00;;;;;;;10.27;67.05;100617.52;108803;1275;21930;-80
2023/01/02 08:02:21;;;;;;;27.90;24.50;;;;;;;10.27;67.11;100617.50;108863;1277;24364;-81
2023/01/02 08:04:54;;;;;;;28.30;25.60;;;;;;;10.30;67.19;100621.40;109002;1274;22434;-81
2023/01/02 08:07:43;;;;;;;29.50;26.60;;;;;;;10.37;67.23;100618.23;108901;1274;21930;-80
2023/01/02 08:10:18;;;;;;;36.20;33.00;;;;;;;10.42;67.16;100621.73;108875;1274;21934;-78
2023/01/02 08:12:56;;;;;;;33.40;30.10;;;;;;;10.46;67.15;100625.23;108840;1273;21945;-78
2023/01/02 08:15:25;;;;;;;34.70;31.60;;;;;;;10.52;67.02;100626.98;109034;1274;21932;-80
2023/01/02 08:17:57;;;;;;;31.60;28.60;;;;;;;10.56;66.82;100629.25;108802;1274;23768;-79
2023/01/02 08:20:26;;;;;;;30.90;27.90;;;;;;;10.60;66.84;100629.33;108656;1274;21994;-79
2023/01/02 08:22:56;;;;;;;23.60;21.30;;;;;;;10.68;66.78;100630.27;108788;1274;21949;-79
2023/01/02 08:25:26;;;;;;;23.40;19.50;;;;;;;10.71;66.62;100626.52;108847;1274;24346;-80
2023/01/02 08:27:58;;;;;;;26.10;23.20;;;;;;;10.73;66.65;100626.62;108365;1281;23097;-82
2023/01/02 08:30:31;;;;;;;39.70;31.80;;;;;;;10.77;66.62;100630.48;108476;1282;24029;-79
2023/01/02 08:33:03;;;;;;;41.00;31.70;;;;;;;10.80;66.57;100641.01;108436;1283;21945;-80
2023/01/02 08:35:33;;;;;;;22.60;20.20;;;;;;;10.85;66.36;100641.17;108427;1284;23023;-81
2023/01/02 08:38:07;;;;;;;27.40;15.90;;;;;;;10.91;66.37;100642.70;108339;1284;23718;-81
2023/01/02 08:40:36;;;;;;;18.30;13.30;;;;;;;10.96;66.25;100643.09;108468;1284;21995;-81
2023/01/02 08:43:07;;;;;;;16.20;12.50;;;;;;;11.01;66.17;100642.19;108221;1283;21925;-81
2023/01/02 08:45:37;;;;;;;23.00;16.40;;;;;;;11.04;66.14;100638.08;108604;1278;21954;-81
2023/01/02 08:48:07;;;;;;;16.70;13.80;;;;;;;11.09;66.01;100637.41;108948;1274;22810;-81
2023/01/02 08:50:50;;;;;;;16.50;12.70;;;;;;;11.10;65.83;100639.61;108630;1280;22494;-83
2023/01/02 08:53:19;;;;;;;16.20;12.40;;;;;;;11.09;65.61;100641.20;108802;1275;21934;-80
2023/01/02 08:55:49;;;;;;;14.60;13.10;;;;;;;11.14;65.76;100641.59;108535;1279;23064;-80
2023/01/02 08:58:18;;;;;;;13.50;11.30;;;;;;;11.19;65.68;100642.11;108644;1280;22059;-81
2023/01/02 09:00:50;;;;;;;18.90;12.30;;;;;;;11.19;65.46;100644.69;108617;1277;23706;-81
2023/01/02 09:03:20;;;;;;;16.70;12.50;;;;;;;11.22;65.53;100649.65;108617;1280;24266;-82
2023/01/02 09:05:50;;;;;;;17.70;12.40;;;;;;;11.29;65.62;100651.29;108435;1283;21972;-80
2023/01/02 09:08:21;;;;;;;19.60;13.30;;;;;;;11.37;65.49;100646.31;108478;1278;22210;-80
2023/01/02 09:10:52;;;;;;;17.00;12.90;;;;;;;11.44;65.31;100648.17;108634;1278;21951;-80
2023/01/02 09:13:27;;;;;;;18.60;14.70;;;;;;;11.50;65.14;100645.31;108707;1276;22111;-84
2023/01/02 09:15:57;;;;;;;19.70;16.70;;;;;;;11.52;64.84;100642.64;108821;1277;22011;-77
2023/01/02 09:18:26;;;;;;;24.50;22.00;;;;;;;11.50;64.76;100642.34;108723;1278;21938;-79
2023/01/02 09:20:58;;;;;;;27.10;24.40;;;;;;;11.49;64.83;100648.85;108672;1277;21931;-81
2023/01/02 09:23:32;;;;;;;26.90;24.10;;;;;;;11.51;65.03;100648.23;108915;1272;21955;-83
2023/01/02 09:26:18;;;;;;;24.30;21.80;;;;;;;11.56;64.95;100647.71;108926;1272;21994;-86
2023/01/02 09:29:08;;;;;;;25.20;21.90;;;;;;;11.63;65.07;100652.14;108658;1276;21933;-81
2023/01/02 09:31:39;;;;;;;25.00;20.90;;;;;;;11.71;64.93;100647.31;108244;1283;23649;-81
2023/01/02 09:34:19;;;;;;;21.40;15.90;;;;;;;11.80;64.65;100640.36;108285;1282;21919;-83
2023/01/02 09:37:18;;;;;;;19.10;15.20;;;;;;;11.83;64.57;100635.53;108107;1282;23867;-81
2023/01/02 09:40:13;;;;;;;22.90;16.80;;;;;;;11.84;64.39;100635.16;108207;1282;23805;-79
2023/01/02 09:43:13;;;;;;;18.10;15.30;;;;;;;11.89;64.23;100637.25;108365;1280;23112;-80
2023/01/02 09:46:59;;;;;;;17.00;13.60;;;;;;;11.82;63.78;100628.77;108361;1279;23698;-80
2023/01/02 09:50:03;;;;;;;17.10;14.30;;;;;;;11.74;63.83;100624.91;108739;1260;21922;-80
2023/01/02 09:53:02;;;;;;;19.00;13.20;;;;;;;11.73;63.89;100617.11;108513;1272;21960;-81
2023/01/02 09:55:59;;;;;;;20.00;13.40;;;;;;;11.77;63.92;100611.53;108203;1282;21943;-79
2023/01/02 09:59:27;;;;;;;19.80;14.10;;;;;;;11.80;63.89;100604.29;107898;1289;21975;-79
2023/01/02 10:02:25;;;;;;;19.20;15.30;;;;;;;11.79;63.99;100606.41;108081;1289;22738;-81
2023/01/02 10:05:35;;;;;;;19.20;14.00;;;;;;;11.83;64.00;100605.75;108099;1289;22272;-81
2023/01/02 10:09:06;;;;;;;21.30;16.00;;;;;;;11.92;64.36;100614.31;107514;1294;21950;-82
2023/01/02 10:12:49;;;;;;;22.30;18.70;;;;;;;12.04;64.26;100611.02;106893;1297;23833;-79
2023/01/02 10:15:30;;;;;;;20.80;18.80;;;;;;;12.13;64.20;100603.00;106665;1300;22054;-80
2023/01/02 10:18:39;;;;;;;27.60;22.50;;;;;;;12.28;64.10;100593.66;107030;1295;21987;-80
2023/01/02 10:21:37;;;;;;;20.20;18.00;;;;;;;12.49;63.87;100580.08;107613;1292;21951;-81
2023/01/02 10:24:47;;;;;;;23.20;17.80;;;;;;;12.67;63.50;100575.29;107492;1292;21928;-81
2023/01/02 10:28:00;;;;;;;23.40;17.20;;;;;;;12.79;62.62;100582.45;107338;1298;21990;-82
2023/01/02 10:31:04;;;;;;;16.80;13.80;;;;;;;12.88;62.58;100590.11;107369;1286;24893;-81
2023/01/02 10:34:08;;;;;;;23.60;14.50;;;;;;;13.00;62.47;100592.20;107585;1291;21982;-81
2023/01/02 10:37:24;;;;;;;19.20;15.80;;;;;;;13.18;62.27;100593.33;107737;1292;21950;-83
2023/01/02 10:40:32;;;;;;;19.10;15.60;;;;;;;13.32;61.85;100593.42;107601;1292;21971;-80
2023/01/02 10:43:17;;;;;;;18.70;16.00;;;;;;;13.44;61.41;100591.98;107708;1292;21961;-80
2023/01/02 10:46:02;;;;;;;17.70;13.90;;;;;;;13.53;61.13;100594.38;107610;1289;21947;-83
2023/01/02 10:48:44;;;;;;;18.10;14.00;;;;;;;13.59;60.86;100592.54;108099;1279;23086;-83
2023/01/02 10:52:02;;;;;;;;;;;;;;;;;;;;;
2023/01/02 10:55:44;;;;;;;21.40;16.70;;;;;;;13.64;60.38;100583.73;108442;1283;22400;-82
2023/01/02 10:58:53;;;;;;;23.30;17.20;;;;;;;13.65;60.27;100577.42;108401;1283;21972;-83
2023/01/02 11:01:49;;;;;;;19.40;15.10;;;;;;;13.68;60.12;100571.67;107845;1289;23869;-84
2023/01/02 11:04:31;;;;;;;31.30;22.30;;;;;;;13.69;59.93;100562.52;108199;1280;22371;-82
2023/01/02 11:07:33;;;;;;;37.70;24.90;;;;;;;13.71;59.95;100558.08;108208;1286;22893;-84
2023/01/02 11:10:26;;;;;;;23.60;17.90;;;;;;;13.71;59.98;100552.11;108203;1285;21939;-82
2023/01/02 11:13:01;;;;;;;22.10;16.50;;;;;;;13.71;59.84;100552.11;108331;1285;21947;-82
2023/01/02 11:15:33;;;;;;;26.80;20.10;;;;;;;13.74;59.94;100557.93;108096;1282;21928;-83
2023/01/02 11:18:16;;;;;;;51.40;35.40;;;;;;;13.77;59.87;100548.33;108149;1288;21974;-83
2023/01/02 11:20:52;;;;;;;22.00;17.70;;;;;;;13.75;59.75;100539.85;108140;1285;21942;-83
2023/01/02 11:23:25;;;;;;;19.70;15.20;;;;;;;13.73;59.60;100534.17;108147;1286;23705;-83
2023/01/02 11:25:55;;;;;;;20.60;15.30;;;;;;;13.70;59.74;100533.29;108166;1284;23661;-82
2023/01/02 11:28:33;;;;;;;19.90;14.80;;;;;;;13.68;59.76;100528.96;108342;1281;21966;-82
2023/01/02 11:31:10;;;;;;;16.90;14.20;;;;;;;13.65;59.82;100515.48;108402;1279;21927;-82
2023/01/02 11:33:45;;;;;;;18.40;13.70;;;;;;;13.62;60.04;100515.13;108825;1272;21937;-82
2023/01/02 11:36:18;;;;;;;18.10;13.60;;;;;;;13.60;60.03;100527.95;108871;1274;24417;-83
2023/01/02 11:39:18;;;;;;;19.30;14.80;;;;;;;13.59;60.15;100529.42;108847;1274;21954;-82
2023/01/02 11:45:17;;;;;;;22.80;16.60;;;;;;;13.58;60.72;100531.02;108644;1279;23226;-83
2023/01/02 11:48:17;;;;;;;18.70;14.60;;;;;;;13.66;60.73;100533.47;108613;1279;21851;-83
2023/01/02 11:50:51;;;;;;;21.30;15.60;;;;;;;13.77;60.70;100534.33;108718;1278;22121;-83
2023/01/02 11:53:37;;;;;;;23.50;16.50;;;;;;;13.84;60.24;100536.81;108644;1277;23576;-82
2023/01/02 11:56:32;;;;;;;17.30;14.50;;;;;;;13.85;60.20;100535.17;108707;1271;21954;-82
2023/01/02 11:59:13;;;;;;;21.80;16.30;;;;;;;13.89;60.05;100532.52;108705;1278;23650;-82
2023/01/02 12:02:18;;;;;;;24.40;18.50;;;;;;;13.90;60.16;100531.44;108689;1278;23573;-82
2023/01/02 12:04:48;;;;;;;21.90;17.40;;;;;;;13.95;60.16;100530.48;109070;1274;21923;-81
2023/01/02 12:08:02;;;;;;;19.00;14.80;;;;;;;14.03;59.89;100525.37;109017;1272;21944;-84
2023/01/02 12:11:01;;;;;;;22.50;17.20;;;;;;;14.09;59.73;100524.88;108918;1272;23664;-82